Portada
METAR-TAF:

METAR-TAF

Aeropuertos :

Aeropuerto de Madrid-Barajas

Madrid, España

latitud: 40-27N, longitud: 003-33W, altitud: 609 m

Observación

El informe se hizo hace 44 minutos, a las 01:30 UTC
Viento calma
Temperatura 8°C
Humedad 87%
Presión 1024 hPa
Visibilidad 10 km o más
Nubes dispersas a una altura de 2500 ft
Cielo cubierto a una altura de 5000 ft

METAR: LEMD 020130Z 00000KT 9999 SCT025 OVC050 08/06 Q1024 NOSIG

Hora: 03:14 (02:14 UTC)

Pronóstico

El informe se hizo hace 3 horas y 14 minutos, a las 23:00 UTC
Pronóstico válido del 02 a las 00 UTC al 03 a las 06 UTC
Viento 5 kt con dirección variable
Visibilidad 10 km o más
Nubes dispersas a una altura de 3000 ft
Cielo nuboso a una altura de 4000 ft

TAF: LEMD 012300Z 0200/0306 VRB05KT 9999 SCT030 BKN040 TX13/0215Z TN06/0206Z

Observaciones y pronósticos meteorológicos de más de 4000 aeropuertos (mensajes METAR y TAF).

Los puntos amarillos y rojos representan las estaciones disponibles.

Ponga el ratón en el punto deseado para ver el nombre de la estación.

Haga clic para ver las observaciones y los pronósticos meteorológicos.

Para cambiar el mapa : haga clic en los botones verdes con una cruz de color negro para hacer un zoom, en el botón verde con un guión para alejar o en las flechas verdes para mapas adyacentes.


METAR-TAF: